createdAt,value
2017-06-15T14:59:44.510Z,2736
2017-06-15T16:20:22.823Z,712
2017-06-15T16:22:38.681Z,672
2017-06-15T16:32:47.256Z,1056
2017-06-15T16:42:56.036Z,3312
2017-06-15T16:53:04.984Z,3796
2017-06-15T17:03:13.936Z,6084
2017-06-15T17:13:22.754Z,10724
2017-06-15T17:23:31.437Z,12076
2017-06-15T17:33:40.013Z,11416
2017-06-15T17:43:48.539Z,10960
2017-06-15T17:53:57.028Z,11108
2017-06-15T18:04:05.424Z,11836
2017-06-15T18:14:13.597Z,12420
2017-06-15T18:24:21.512Z,11588
2017-06-15T18:34:29.317Z,9940
2017-06-15T18:44:37.129Z,8096
2017-06-15T18:54:44.942Z,5840
2017-06-15T19:04:52.897Z,4584
2017-06-15T19:15:00.956Z,2828
2017-06-15T19:25:09.191Z,1932
2017-06-15T19:35:17.545Z,1184
2017-06-15T19:45:26.014Z,636
2017-06-15T19:55:34.661Z,308
2017-06-15T20:05:43.383Z,124
2017-06-15T20:15:52.211Z,40
2017-06-15T20:26:01.151Z,12
2017-06-15T20:36:10.046Z,4
2017-06-15T20:46:19.022Z,0
2017-06-15T20:56:28.030Z,0
2017-06-15T21:06:37.053Z,0
2017-06-15T21:16:46.130Z,0
2017-06-15T21:26:55.220Z,0
2017-06-15T21:37:04.381Z,0
2017-06-15T21:47:13.628Z,0
2017-06-15T21:57:22.949Z,0
2017-06-15T22:07:32.264Z,0
2017-06-15T22:17:41.600Z,0
2017-06-15T22:27:50.931Z,0
2017-06-15T22:38:00.348Z,0
2017-06-15T22:48:09.862Z,0
2017-06-15T22:58:19.378Z,0
2017-06-15T23:08:28.892Z,0
2017-06-15T23:18:38.456Z,0
2017-06-15T23:28:48.011Z,0
2017-06-15T23:38:57.503Z,0
2017-06-15T23:49:07.053Z,0
2017-06-15T23:59:16.329Z,0
